sensor_id;sensor_type;location;lat;lon;timestamp;P1;durP1;ratioP1;P2;durP2;ratioP2
30723;SDS011;17473;52.286;20.930;2023-03-16T00:02:03;30.37;;;15.00;;
30723;SDS011;17473;52.286;20.930;2023-03-16T00:04:32;33.93;;;15.27;;
30723;SDS011;17473;52.286;20.930;2023-03-16T00:07:03;32.17;;;15.27;;
30723;SDS011;17473;52.286;20.930;2023-03-16T00:09:36;33.30;;;15.37;;
30723;SDS011;17473;52.286;20.930;2023-03-16T00:12:08;38.10;;;15.47;;
30723;SDS011;17473;52.286;20.930;2023-03-16T00:14:43;28.30;;;15.43;;
30723;SDS011;17473;52.286;20.930;2023-03-16T00:17:13;32.03;;;14.30;;
30723;SDS011;17473;52.286;20.930;2023-03-16T00:19:46;28.43;;;13.37;;
30723;SDS011;17473;52.286;20.930;2023-03-16T00:22:21;36.13;;;15.70;;
30723;SDS011;17473;52.286;20.930;2023-03-16T00:24:54;31.00;;;14.03;;
30723;SDS011;17473;52.286;20.930;2023-03-16T00:27:22;29.13;;;14.53;;
30723;SDS011;17473;52.286;20.930;2023-03-16T00:29:52;42.37;;;16.43;;
30723;SDS011;17473;52.286;20.930;2023-03-16T00:32:23;30.83;;;14.90;;
30723;SDS011;17473;52.286;20.930;2023-03-16T00:34:54;32.87;;;14.67;;
30723;SDS011;17473;52.286;20.930;2023-03-16T00:37:22;35.10;;;16.00;;
30723;SDS011;17473;52.286;20.930;2023-03-16T00:39:52;36.13;;;14.50;;
30723;SDS011;17473;52.286;20.930;2023-03-16T00:42:26;34.00;;;15.13;;
30723;SDS011;17473;52.286;20.930;2023-03-16T00:44:56;30.63;;;15.10;;
30723;SDS011;17473;52.286;20.930;2023-03-16T00:47:25;34.17;;;14.43;;
30723;SDS011;17473;52.286;20.930;2023-03-16T00:49:55;29.47;;;13.07;;
30723;SDS011;17473;52.286;20.930;2023-03-16T00:52:23;32.47;;;14.37;;
30723;SDS011;17473;52.286;20.930;2023-03-16T00:54:52;30.70;;;13.43;;
30723;SDS011;17473;52.286;20.930;2023-03-16T00:57:21;30.03;;;13.30;;
30723;SDS011;17473;52.286;20.930;2023-03-16T00:59:50;35.53;;;13.67;;
30723;SDS011;17473;52.286;20.930;2023-03-16T01:02:18;27.50;;;13.43;;
30723;SDS011;17473;52.286;20.930;2023-03-16T01:04:49;27.87;;;13.03;;
30723;SDS011;17473;52.286;20.930;2023-03-16T01:07:19;26.57;;;13.33;;
30723;SDS011;17473;52.286;20.930;2023-03-16T01:09:47;28.87;;;14.40;;
30723;SDS011;17473;52.286;20.930;2023-03-16T01:12:15;29.57;;;12.83;;
30723;SDS011;17473;52.286;20.930;2023-03-16T01:14:44;27.60;;;13.67;;
30723;SDS011;17473;52.286;20.930;2023-03-16T01:17:12;33.73;;;14.90;;
30723;SDS011;17473;52.286;20.930;2023-03-16T01:19:42;25.87;;;12.67;;
30723;SDS011;17473;52.286;20.930;2023-03-16T01:22:10;33.90;;;14.17;;
30723;SDS011;17473;52.286;20.930;2023-03-16T01:24:38;31.93;;;13.97;;
30723;SDS011;17473;52.286;20.930;2023-03-16T01:27:06;29.83;;;11.93;;
30723;SDS011;17473;52.286;20.930;2023-03-16T01:29:34;32.17;;;13.20;;
30723;SDS011;17473;52.286;20.930;2023-03-16T01:32:03;32.00;;;14.03;;
30723;SDS011;17473;52.286;20.930;2023-03-16T01:34:31;28.03;;;12.97;;
30723;SDS011;17473;52.286;20.930;2023-03-16T01:36:59;28.83;;;12.90;;
30723;SDS011;17473;52.286;20.930;2023-03-16T01:39:27;26.50;;;12.73;;
30723;SDS011;17473;52.286;20.930;2023-03-16T01:41:54;29.60;;;13.20;;
30723;SDS011;17473;52.286;20.930;2023-03-16T01:44:22;29.40;;;12.90;;
30723;SDS011;17473;52.286;20.930;2023-03-16T01:46:56;29.97;;;12.57;;
30723;SDS011;17473;52.286;20.930;2023-03-16T01:49:30;30.33;;;12.57;;
30723;SDS011;17473;52.286;20.930;2023-03-16T01:52:09;25.33;;;12.23;;
30723;SDS011;17473;52.286;20.930;2023-03-16T01:54:49;34.77;;;12.40;;
30723;SDS011;17473;52.286;20.930;2023-03-16T01:57:26;26.67;;;12.70;;
30723;SDS011;17473;52.286;20.930;2023-03-16T02:00:10;34.00;;;12.30;;
30723;SDS011;17473;52.286;20.930;2023-03-16T02:02:46;29.73;;;11.43;;
30723;SDS011;17473;52.286;20.930;2023-03-16T02:05:26;24.80;;;11.63;;
30723;SDS011;17473;52.286;20.930;2023-03-16T02:08:19;19.03;;;10.50;;
30723;SDS011;17473;52.286;20.930;2023-03-16T02:10:48;25.37;;;10.53;;
30723;SDS011;17473;52.286;20.930;2023-03-16T02:13:21;24.97;;;10.43;;
30723;SDS011;17473;52.286;20.930;2023-03-16T02:15:50;24.57;;;10.07;;
30723;SDS011;17473;52.286;20.930;2023-03-16T02:18:18;23.30;;;10.93;;
30723;SDS011;17473;52.286;20.930;2023-03-16T02:21:04;21.67;;;10.47;;
30723;SDS011;17473;52.286;20.930;2023-03-16T02:23:37;22.93;;;9.77;;
30723;SDS011;17473;52.286;20.930;2023-03-16T02:29:05;18.70;;;9.63;;
30723;SDS011;17473;52.286;20.930;2023-03-16T02:32:04;19.17;;;9.57;;
30723;SDS011;17473;52.286;20.930;2023-03-16T02:34:32;18.83;;;9.20;;
30723;SDS011;17473;52.286;20.930;2023-03-16T02:37:00;19.73;;;9.67;;
30723;SDS011;17473;52.286;20.930;2023-03-16T02:39:28;21.60;;;9.57;;
30723;SDS011;17473;52.286;20.930;2023-03-16T02:41:55;20.80;;;9.73;;
30723;SDS011;17473;52.286;20.930;2023-03-16T02:44:32;19.07;;;9.43;;
30723;SDS011;17473;52.286;20.930;2023-03-16T02:47:03;21.67;;;10.17;;
30723;SDS011;17473;52.286;20.930;2023-03-16T02:49:37;20.13;;;8.83;;
30723;SDS011;17473;52.286;20.930;2023-03-16T02:52:07;22.13;;;8.67;;
30723;SDS011;17473;52.286;20.930;2023-03-16T02:54:35;19.40;;;9.23;;
30723;SDS011;17473;52.286;20.930;2023-03-16T02:57:02;21.03;;;9.30;;
30723;SDS011;17473;52.286;20.930;2023-03-16T02:59:30;18.17;;;8.57;;
30723;SDS011;17473;52.286;20.930;2023-03-16T03:01:57;20.47;;;9.30;;
30723;SDS011;17473;52.286;20.930;2023-03-16T03:04:24;22.90;;;10.23;;
30723;SDS011;17473;52.286;20.930;2023-03-16T03:06:51;22.97;;;9.37;;
30723;SDS011;17473;52.286;20.930;2023-03-16T03:09:18;24.90;;;10.33;;
30723;SDS011;17473;52.286;20.930;2023-03-16T03:11:46;20.63;;;9.43;;
30723;SDS011;17473;52.286;20.930;2023-03-16T03:14:13;21.57;;;10.37;;
30723;SDS011;17473;52.286;20.930;2023-03-16T03:16:42;18.80;;;9.87;;
30723;SDS011;17473;52.286;20.930;2023-03-16T03:19:12;24.33;;;9.90;;
30723;SDS011;17473;52.286;20.930;2023-03-16T03:21:39;21.13;;;10.50;;
30723;SDS011;17473;52.286;20.930;2023-03-16T03:24:07;21.90;;;9.87;;
30723;SDS011;17473;52.286;20.930;2023-03-16T03:26:35;20.43;;;10.47;;
30723;SDS011;17473;52.286;20.930;2023-03-16T03:29:05;24.03;;;10.23;;
30723;SDS011;17473;52.286;20.930;2023-03-16T03:31:32;31.43;;;11.47;;
30723;SDS011;17473;52.286;20.930;2023-03-16T03:34:00;24.43;;;10.77;;
30723;SDS011;17473;52.286;20.930;2023-03-16T03:36:32;24.83;;;10.90;;
30723;SDS011;17473;52.286;20.930;2023-03-16T03:39:00;22.17;;;10.87;;
30723;SDS011;17473;52.286;20.930;2023-03-16T03:41:30;24.00;;;11.80;;
30723;SDS011;17473;52.286;20.930;2023-03-16T03:43:59;27.13;;;12.17;;
30723;SDS011;17473;52.286;20.930;2023-03-16T03:46:26;27.53;;;11.90;;
30723;SDS011;17473;52.286;20.930;2023-03-16T03:48:53;26.00;;;11.60;;
30723;SDS011;17473;52.286;20.930;2023-03-16T03:51:20;20.83;;;10.53;;
30723;SDS011;17473;52.286;20.930;2023-03-16T03:53:48;26.97;;;11.90;;
30723;SDS011;17473;52.286;20.930;2023-03-16T03:56:15;25.10;;;12.77;;
30723;SDS011;17473;52.286;20.930;2023-03-16T03:58:42;24.63;;;11.13;;
30723;SDS011;17473;52.286;20.930;2023-03-16T04:01:09;30.23;;;12.53;;
30723;SDS011;17473;52.286;20.930;2023-03-16T04:03:36;29.37;;;11.70;;
30723;SDS011;17473;52.286;20.930;2023-03-16T04:06:03;28.30;;;12.13;;
30723;SDS011;17473;52.286;20.930;2023-03-16T04:08:32;24.47;;;11.23;;
30723;SDS011;17473;52.286;20.930;2023-03-16T04:11:00;22.90;;;11.00;;
30723;SDS011;17473;52.286;20.930;2023-03-16T04:13:27;21.27;;;11.27;;
30723;SDS011;17473;52.286;20.930;2023-03-16T04:15:55;24.13;;;11.13;;
30723;SDS011;17473;52.286;20.930;2023-03-16T04:18:24;27.07;;;11.13;;
30723;SDS011;17473;52.286;20.930;2023-03-16T04:20:51;26.60;;;12.03;;
30723;SDS011;17473;52.286;20.930;2023-03-16T04:23:18;26.47;;;12.00;;
30723;SDS011;17473;52.286;20.930;2023-03-16T04:25:47;25.43;;;12.23;;
30723;SDS011;17473;52.286;20.930;2023-03-16T04:28:14;30.30;;;12.50;;
30723;SDS011;17473;52.286;20.930;2023-03-16T04:30:43;20.40;;;11.13;;
30723;SDS011;17473;52.286;20.930;2023-03-16T04:33:10;23.83;;;11.03;;
30723;SDS011;17473;52.286;20.930;2023-03-16T04:35:37;23.23;;;11.50;;
30723;SDS011;17473;52.286;20.930;2023-03-16T04:38:04;23.43;;;11.93;;
30723;SDS011;17473;52.286;20.930;2023-03-16T04:40:31;24.37;;;10.53;;
30723;SDS011;17473;52.286;20.930;2023-03-16T04:42:58;22.13;;;9.90;;
30723;SDS011;17473;52.286;20.930;2023-03-16T04:45:25;22.80;;;10.70;;
30723;SDS011;17473;52.286;20.930;2023-03-16T04:47:52;22.27;;;10.77;;
30723;SDS011;17473;52.286;20.930;2023-03-16T04:50:19;23.63;;;11.13;;
30723;SDS011;17473;52.286;20.930;2023-03-16T04:52:47;28.33;;;11.50;;
30723;SDS011;17473;52.286;20.930;2023-03-16T04:55:15;21.87;;;10.77;;
30723;SDS011;17473;52.286;20.930;2023-03-16T04:57:42;25.30;;;10.53;;
30723;SDS011;17473;52.286;20.930;2023-03-16T05:00:10;24.07;;;10.23;;
30723;SDS011;17473;52.286;20.930;2023-03-16T05:02:49;25.20;;;11.13;;
30723;SDS011;17473;52.286;20.930;2023-03-16T05:05:20;23.57;;;11.53;;
30723;SDS011;17473;52.286;20.930;2023-03-16T05:07:47;22.57;;;11.20;;
30723;SDS011;17473;52.286;20.930;2023-03-16T05:10:16;25.67;;;11.03;;
30723;SDS011;17473;52.286;20.930;2023-03-16T05:12:44;24.13;;;11.93;;
30723;SDS011;17473;52.286;20.930;2023-03-16T05:15:11;30.43;;;10.87;;
30723;SDS011;17473;52.286;20.930;2023-03-16T05:17:39;22.13;;;11.43;;
30723;SDS011;17473;52.286;20.930;2023-03-16T05:20:11;24.37;;;11.97;;
30723;SDS011;17473;52.286;20.930;2023-03-16T05:22:42;25.03;;;11.70;;
30723;SDS011;17473;52.286;20.930;2023-03-16T05:25:11;25.27;;;11.50;;
30723;SDS011;17473;52.286;20.930;2023-03-16T05:27:41;28.93;;;12.57;;
30723;SDS011;17473;52.286;20.930;2023-03-16T05:30:10;23.17;;;10.80;;
30723;SDS011;17473;52.286;20.930;2023-03-16T05:32:39;23.83;;;11.10;;
30723;SDS011;17473;52.286;20.930;2023-03-16T05:35:06;21.27;;;11.47;;
30723;SDS011;17473;52.286;20.930;2023-03-16T05:37:35;24.47;;;11.77;;
30723;SDS011;17473;52.286;20.930;2023-03-16T05:40:04;29.60;;;11.77;;
30723;SDS011;17473;52.286;20.930;2023-03-16T05:42:46;24.48;;;12.52;;
30723;SDS011;17473;52.286;20.930;2023-03-16T05:45:15;19.55;;;11.93;;
30723;SDS011;17473;52.286;20.930;2023-03-16T05:47:43;24.85;;;12.20;;
30723;SDS011;17473;52.286;20.930;2023-03-16T05:50:11;25.95;;;13.40;;
30723;SDS011;17473;52.286;20.930;2023-03-16T05:52:39;24.17;;;12.80;;
30723;SDS011;17473;52.286;20.930;2023-03-16T05:55:07;26.33;;;12.90;;
30723;SDS011;17473;52.286;20.930;2023-03-16T05:57:35;25.67;;;13.20;;
30723;SDS011;17473;52.286;20.930;2023-03-16T06:00:03;26.00;;;12.98;;
30723;SDS011;17473;52.286;20.930;2023-03-16T06:02:42;19.75;;;12.38;;
30723;SDS011;17473;52.286;20.930;2023-03-16T06:05:15;21.40;;;12.27;;
30723;SDS011;17473;52.286;20.930;2023-03-16T06:07:44;24.77;;;13.75;;
30723;SDS011;17473;52.286;20.930;2023-03-16T06:10:11;26.98;;;13.48;;
30723;SDS011;17473;52.286;20.930;2023-03-16T06:12:39;23.38;;;13.93;;
30723;SDS011;17473;52.286;20.930;2023-03-16T06:15:07;26.50;;;14.07;;
30723;SDS011;17473;52.286;20.930;2023-03-16T06:17:37;22.48;;;13.45;;
30723;SDS011;17473;52.286;20.930;2023-03-16T06:20:06;25.60;;;12.68;;
30723;SDS011;17473;52.286;20.930;2023-03-16T06:22:37;27.67;;;13.75;;
30723;SDS011;17473;52.286;20.930;2023-03-16T06:25:06;26.25;;;14.07;;
30723;SDS011;17473;52.286;20.930;2023-03-16T06:27:35;26.98;;;13.65;;
30723;SDS011;17473;52.286;20.930;2023-03-16T06:30:03;35.35;;;14.63;;
30723;SDS011;17473;52.286;20.930;2023-03-16T06:32:37;31.52;;;13.73;;
30723;SDS011;17473;52.286;20.930;2023-03-16T06:35:08;29.27;;;13.85;;
30723;SDS011;17473;52.286;20.930;2023-03-16T06:37:35;26.40;;;14.18;;
30723;SDS011;17473;52.286;20.930;2023-03-16T06:40:03;29.67;;;15.48;;
30723;SDS011;17473;52.286;20.930;2023-03-16T06:42:31;23.63;;;13.65;;
30723;SDS011;17473;52.286;20.930;2023-03-16T06:44:58;31.13;;;14.93;;
30723;SDS011;17473;52.286;20.930;2023-03-16T06:47:26;29.35;;;14.02;;
30723;SDS011;17473;52.286;20.930;2023-03-16T06:49:53;28.30;;;14.55;;
30723;SDS011;17473;52.286;20.930;2023-03-16T06:52:20;27.00;;;15.02;;
30723;SDS011;17473;52.286;20.930;2023-03-16T06:54:47;27.48;;;15.30;;
30723;SDS011;17473;52.286;20.930;2023-03-16T06:57:16;27.00;;;15.30;;
30723;SDS011;17473;52.286;20.930;2023-03-16T06:59:43;25.90;;;14.88;;
30723;SDS011;17473;52.286;20.930;2023-03-16T07:02:13;33.75;;;15.75;;
30723;SDS011;17473;52.286;20.930;2023-03-16T07:04:40;32.28;;;15.07;;
30723;SDS011;17473;52.286;20.930;2023-03-16T07:07:08;30.15;;;15.38;;
30723;SDS011;17473;52.286;20.930;2023-03-16T07:09:37;28.15;;;14.82;;
30723;SDS011;17473;52.286;20.930;2023-03-16T07:12:07;33.22;;;15.98;;
30723;SDS011;17473;52.286;20.930;2023-03-16T07:14:35;28.70;;;15.63;;
30723;SDS011;17473;52.286;20.930;2023-03-16T07:17:02;25.90;;;14.65;;
30723;SDS011;17473;52.286;20.930;2023-03-16T07:19:30;26.25;;;14.52;;
30723;SDS011;17473;52.286;20.930;2023-03-16T07:21:57;23.73;;;13.35;;
30723;SDS011;17473;52.286;20.930;2023-03-16T07:24:24;31.17;;;14.27;;
30723;SDS011;17473;52.286;20.930;2023-03-16T07:26:51;22.83;;;13.35;;
30723;SDS011;17473;52.286;20.930;2023-03-16T07:29:19;21.80;;;13.07;;
30723;SDS011;17473;52.286;20.930;2023-03-16T07:31:46;21.60;;;12.70;;
30723;SDS011;17473;52.286;20.930;2023-03-16T07:34:13;20.33;;;13.13;;
30723;SDS011;17473;52.286;20.930;2023-03-16T07:36:40;26.45;;;13.32;;
30723;SDS011;17473;52.286;20.930;2023-03-16T07:39:07;28.02;;;13.50;;
30723;SDS011;17473;52.286;20.930;2023-03-16T07:41:35;21.90;;;13.18;;
30723;SDS011;17473;52.286;20.930;2023-03-16T07:44:02;35.55;;;14.10;;
30723;SDS011;17473;52.286;20.930;2023-03-16T07:46:29;26.33;;;14.07;;
30723;SDS011;17473;52.286;20.930;2023-03-16T07:48:58;27.38;;;13.35;;
30723;SDS011;17473;52.286;20.930;2023-03-16T07:51:25;20.75;;;12.50;;
30723;SDS011;17473;52.286;20.930;2023-03-16T07:53:52;24.73;;;13.70;;
30723;SDS011;17473;52.286;20.930;2023-03-16T07:56:19;23.23;;;14.38;;
30723;SDS011;17473;52.286;20.930;2023-03-16T07:58:46;22.85;;;11.88;;
30723;SDS011;17473;52.286;20.930;2023-03-16T08:01:13;32.17;;;13.57;;
30723;SDS011;17473;52.286;20.930;2023-03-16T08:03:40;27.90;;;13.70;;
30723;SDS011;17473;52.286;20.930;2023-03-16T08:06:08;23.50;;;13.43;;
30723;SDS011;17473;52.286;20.930;2023-03-16T08:08:35;23.52;;;12.70;;
30723;SDS011;17473;52.286;20.930;2023-03-16T08:11:02;17.40;;;11.85;;
30723;SDS011;17473;52.286;20.930;2023-03-16T08:13:29;18.15;;;12.57;;
30723;SDS011;17473;52.286;20.930;2023-03-16T08:15:57;24.88;;;13.55;;
30723;SDS011;17473;52.286;20.930;2023-03-16T08:18:28;22.45;;;13.40;;
30723;SDS011;17473;52.286;20.930;2023-03-16T08:20:56;23.23;;;12.77;;
30723;SDS011;17473;52.286;20.930;2023-03-16T08:23:24;28.02;;;11.88;;
30723;SDS011;17473;52.286;20.930;2023-03-16T08:25:54;24.42;;;12.02;;
30723;SDS011;17473;52.286;20.930;2023-03-16T08:28:23;22.90;;;11.80;;
30723;SDS011;17473;52.286;20.930;2023-03-16T08:30:51;20.05;;;11.95;;
30723;SDS011;17473;52.286;20.930;2023-03-16T08:33:20;22.55;;;11.90;;
30723;SDS011;17473;52.286;20.930;2023-03-16T08:35:48;25.90;;;13.77;;
30723;SDS011;17473;52.286;20.930;2023-03-16T08:38:16;23.13;;;11.93;;
30723;SDS011;17473;52.286;20.930;2023-03-16T08:40:44;24.20;;;11.95;;
30723;SDS011;17473;52.286;20.930;2023-03-16T08:43:15;20.17;;;11.45;;
30723;SDS011;17473;52.286;20.930;2023-03-16T08:45:44;20.48;;;10.73;;
30723;SDS011;17473;52.286;20.930;2023-03-16T08:48:11;20.75;;;11.40;;
30723;SDS011;17473;52.286;20.930;2023-03-16T08:50:40;23.08;;;12.40;;
30723;SDS011;17473;52.286;20.930;2023-03-16T08:53:09;18.75;;;12.43;;
30723;SDS011;17473;52.286;20.930;2023-03-16T08:55:39;23.25;;;12.68;;
30723;SDS011;17473;52.286;20.930;2023-03-16T08:58:07;16.95;;;10.68;;
30723;SDS011;17473;52.286;20.930;2023-03-16T09:00:35;20.88;;;10.98;;
30723;SDS011;17473;52.286;20.930;2023-03-16T09:03:03;19.75;;;9.90;;
30723;SDS011;17473;52.286;20.930;2023-03-16T09:05:31;19.80;;;9.70;;
30723;SDS011;17473;52.286;20.930;2023-03-16T09:07:59;19.58;;;9.77;;
30723;SDS011;17473;52.286;20.930;2023-03-16T09:10:26;18.80;;;8.68;;
30723;SDS011;17473;52.286;20.930;2023-03-16T09:12:54;16.25;;;8.63;;
30723;SDS011;17473;52.286;20.930;2023-03-16T09:15:21;17.83;;;9.30;;
30723;SDS011;17473;52.286;20.930;2023-03-16T09:17:49;13.75;;;8.70;;
30723;SDS011;17473;52.286;20.930;2023-03-16T09:20:16;18.45;;;9.13;;
30723;SDS011;17473;52.286;20.930;2023-03-16T09:22:59;12.52;;;6.75;;
30723;SDS011;17473;52.286;20.930;2023-03-16T09:25:27;12.60;;;6.97;;
30723;SDS011;17473;52.286;20.930;2023-03-16T09:27:54;15.77;;;6.45;;
30723;SDS011;17473;52.286;20.930;2023-03-16T09:30:21;12.10;;;6.43;;
30723;SDS011;17473;52.286;20.930;2023-03-16T09:32:48;16.67;;;6.88;;
30723;SDS011;17473;52.286;20.930;2023-03-16T09:35:16;12.10;;;6.70;;
30723;SDS011;17473;52.286;20.930;2023-03-16T09:37:43;13.85;;;6.22;;
30723;SDS011;17473;52.286;20.930;2023-03-16T09:40:29;9.77;;;5.72;;
30723;SDS011;17473;52.286;20.930;2023-03-16T09:43:06;10.10;;;5.10;;
30723;SDS011;17473;52.286;20.930;2023-03-16T09:46:46;9.65;;;5.18;;
30723;SDS011;17473;52.286;20.930;2023-03-16T09:49:01;9.35;;;4.88;;
30723;SDS011;17473;52.286;20.930;2023-03-16T09:51:42;11.35;;;5.05;;
30723;SDS011;17473;52.286;20.930;2023-03-16T09:57:33;18.92;;;6.85;;
30723;SDS011;17473;52.286;20.930;2023-03-16T10:00:24;13.73;;;6.63;;
30723;SDS011;17473;52.286;20.930;2023-03-16T10:05:33;21.77;;;7.57;;
30723;SDS011;17473;52.286;20.930;2023-03-16T10:10:52;17.90;;;7.00;;
30723;SDS011;17473;52.286;20.930;2023-03-16T10:13:29;9.40;;;5.95;;
30723;SDS011;17473;52.286;20.930;2023-03-16T10:16:16;12.40;;;5.75;;
30723;SDS011;17473;52.286;20.930;2023-03-16T10:18:49;11.63;;;5.40;;
30723;SDS011;17473;52.286;20.930;2023-03-16T10:21:44;13.43;;;5.15;;
30723;SDS011;17473;52.286;20.930;2023-03-16T10:24:18;12.50;;;5.88;;
30723;SDS011;17473;52.286;20.930;2023-03-16T10:26:55;10.57;;;5.68;;
30723;SDS011;17473;52.286;20.930;2023-03-16T10:29:31;11.50;;;6.10;;
30723;SDS011;17473;52.286;20.930;2023-03-16T10:32:11;12.88;;;5.88;;
30723;SDS011;17473;52.286;20.930;2023-03-16T10:34:42;14.23;;;6.88;;
30723;SDS011;17473;52.286;20.930;2023-03-16T10:37:23;11.65;;;6.20;;
30723;SDS011;17473;52.286;20.930;2023-03-16T10:39:55;14.52;;;6.10;;
30723;SDS011;17473;52.286;20.930;2023-03-16T10:42:22;13.68;;;6.45;;
30723;SDS011;17473;52.286;20.930;2023-03-16T10:44:55;11.10;;;6.55;;
30723;SDS011;17473;52.286;20.930;2023-03-16T10:47:30;22.85;;;7.03;;
30723;SDS011;17473;52.286;20.930;2023-03-16T10:50:09;10.75;;;6.15;;
30723;SDS011;17473;52.286;20.930;2023-03-16T10:52:40;15.23;;;6.43;;
30723;SDS011;17473;52.286;20.930;2023-03-16T10:57:53;9.43;;;5.32;;
30723;SDS011;17473;52.286;20.930;2023-03-16T11:00:24;12.52;;;6.28;;
30723;SDS011;17473;52.286;20.930;2023-03-16T11:02:59;18.23;;;6.35;;
30723;SDS011;17473;52.286;20.930;2023-03-16T11:05:37;8.95;;;4.65;;
30723;SDS011;17473;52.286;20.930;2023-03-16T11:08:05;7.45;;;4.25;;
30723;SDS011;17473;52.286;20.930;2023-03-16T11:10:39;11.75;;;5.03;;
30723;SDS011;17473;52.286;20.930;2023-03-16T11:13:21;7.53;;;3.42;;
30723;SDS011;17473;52.286;20.930;2023-03-16T11:16:02;9.82;;;3.65;;
30723;SDS011;17473;52.286;20.930;2023-03-16T11:18:50;6.30;;;3.17;;
30723;SDS011;17473;52.286;20.930;2023-03-16T11:24:48;8.90;;;3.38;;
30723;SDS011;17473;52.286;20.930;2023-03-16T11:27:52;7.40;;;3.35;;
30723;SDS011;17473;52.286;20.930;2023-03-16T11:30:50;10.30;;;3.63;;
30723;SDS011;17473;52.286;20.930;2023-03-16T11:33:28;11.40;;;3.83;;
30723;SDS011;17473;52.286;20.930;2023-03-16T11:36:05;12.60;;;4.82;;
30723;SDS011;17473;52.286;20.930;2023-03-16T11:38:55;14.32;;;5.20;;
30723;SDS011;17473;52.286;20.930;2023-03-16T11:47:48;15.40;;;5.72;;
30723;SDS011;17473;52.286;20.930;2023-03-16T11:58:49;16.55;;;5.25;;
30723;SDS011;17473;52.286;20.930;2023-03-16T12:11:08;11.88;;;5.60;;
30723;SDS011;17473;52.286;20.930;2023-03-16T12:22:40;9.43;;;4.65;;
30723;SDS011;17473;52.286;20.930;2023-03-16T12:25:25;11.18;;;5.05;;
30723;SDS011;17473;52.286;20.930;2023-03-16T12:28:09;13.50;;;5.30;;
30723;SDS011;17473;52.286;20.930;2023-03-16T12:42:47;16.13;;;5.28;;
30723;SDS011;17473;52.286;20.930;2023-03-16T12:45:42;15.77;;;4.88;;
30723;SDS011;17473;52.286;20.930;2023-03-16T12:48:38;13.15;;;4.65;;
30723;SDS011;17473;52.286;20.930;2023-03-16T12:51:17;10.85;;;5.03;;
30723;SDS011;17473;52.286;20.930;2023-03-16T12:53:45;13.88;;;4.75;;
30723;SDS011;17473;52.286;20.930;2023-03-16T12:56:27;16.63;;;5.05;;
30723;SDS011;17473;52.286;20.930;2023-03-16T12:59:15;18.55;;;5.07;;
30723;SDS011;17473;52.286;20.930;2023-03-16T13:01:50;11.50;;;4.65;;
30723;SDS011;17473;52.286;20.930;2023-03-16T13:04:32;13.93;;;3.72;;
30723;SDS011;17473;52.286;20.930;2023-03-16T13:07:08;20.65;;;4.40;;
30723;SDS011;17473;52.286;20.930;2023-03-16T13:09:51;9.70;;;4.43;;
30723;SDS011;17473;52.286;20.930;2023-03-16T13:12:35;14.65;;;4.20;;
30723;SDS011;17473;52.286;20.930;2023-03-16T13:17:48;15.30;;;4.40;;
30723;SDS011;17473;52.286;20.930;2023-03-16T13:20:33;14.95;;;4.18;;
30723;SDS011;17473;52.286;20.930;2023-03-16T13:26:50;12.10;;;4.93;;
30723;SDS011;17473;52.286;20.930;2023-03-16T13:28:53;11.63;;;4.22;;
30723;SDS011;17473;52.286;20.930;2023-03-16T13:31:24;9.70;;;3.90;;
30723;SDS011;17473;52.286;20.930;2023-03-16T13:34:01;13.27;;;4.95;;
30723;SDS011;17473;52.286;20.930;2023-03-16T13:36:32;14.55;;;4.10;;
30723;SDS011;17473;52.286;20.930;2023-03-16T13:41:58;7.82;;;3.92;;
30723;SDS011;17473;52.286;20.930;2023-03-16T13:44:46;12.27;;;3.65;;
30723;SDS011;17473;52.286;20.930;2023-03-16T13:47:14;17.58;;;4.70;;
30723;SDS011;17473;52.286;20.930;2023-03-16T13:49:45;14.15;;;3.97;;
30723;SDS011;17473;52.286;20.930;2023-03-16T13:54:57;12.57;;;4.38;;
30723;SDS011;17473;52.286;20.930;2023-03-16T13:57:28;20.17;;;4.55;;
30723;SDS011;17473;52.286;20.930;2023-03-16T14:02:58;18.00;;;4.50;;
30723;SDS011;17473;52.286;20.930;2023-03-16T14:05:39;17.27;;;3.95;;
30723;SDS011;17473;52.286;20.930;2023-03-16T14:08:17;7.63;;;3.15;;
30723;SDS011;17473;52.286;20.930;2023-03-16T14:10:48;12.48;;;4.13;;
30723;SDS011;17473;52.286;20.930;2023-03-16T14:16:01;16.40;;;4.35;;
30723;SDS011;17473;52.286;20.930;2023-03-16T14:18:41;13.20;;;3.45;;
30723;SDS011;17473;52.286;20.930;2023-03-16T14:21:31;19.23;;;3.72;;
30723;SDS011;17473;52.286;20.930;2023-03-16T14:24:05;14.70;;;3.35;;
30723;SDS011;17473;52.286;20.930;2023-03-16T14:26:46;11.57;;;3.13;;
30723;SDS011;17473;52.286;20.930;2023-03-16T14:29:49;9.52;;;4.13;;
30723;SDS011;17473;52.286;20.930;2023-03-16T14:32:18;15.05;;;4.00;;
30723;SDS011;17473;52.286;20.930;2023-03-16T14:35:03;9.18;;;3.95;;
30723;SDS011;17473;52.286;20.930;2023-03-16T14:37:36;14.18;;;3.65;;
30723;SDS011;17473;52.286;20.930;2023-03-16T14:40:05;9.63;;;3.92;;
30723;SDS011;17473;52.286;20.930;2023-03-16T14:42:47;11.10;;;4.03;;
30723;SDS011;17473;52.286;20.930;2023-03-16T14:45:14;10.05;;;3.97;;
30723;SDS011;17473;52.286;20.930;2023-03-16T14:47:43;11.63;;;3.53;;
30723;SDS011;17473;52.286;20.930;2023-03-16T14:50:17;8.73;;;3.38;;
30723;SDS011;17473;52.286;20.930;2023-03-16T14:52:52;13.10;;;3.80;;
30723;SDS011;17473;52.286;20.930;2023-03-16T14:55:21;8.80;;;3.60;;
30723;SDS011;17473;52.286;20.930;2023-03-16T14:57:50;14.30;;;3.70;;
30723;SDS011;17473;52.286;20.930;2023-03-16T15:00:17;9.45;;;3.50;;
30723;SDS011;17473;52.286;20.930;2023-03-16T15:05:37;5.93;;;2.85;;
30723;SDS011;17473;52.286;20.930;2023-03-16T15:08:13;12.93;;;3.40;;
30723;SDS011;17473;52.286;20.930;2023-03-16T15:11:08;12.65;;;3.35;;
30723;SDS011;17473;52.286;20.930;2023-03-16T15:13:36;6.28;;;2.50;;
30723;SDS011;17473;52.286;20.930;2023-03-16T15:16:23;14.85;;;3.15;;
30723;SDS011;17473;52.286;20.930;2023-03-16T15:18:51;10.90;;;3.40;;
30723;SDS011;17473;52.286;20.930;2023-03-16T15:21:19;6.43;;;2.50;;
30723;SDS011;17473;52.286;20.930;2023-03-16T15:23:50;17.48;;;3.30;;
30723;SDS011;17473;52.286;20.930;2023-03-16T15:26:18;12.07;;;2.97;;
30723;SDS011;17473;52.286;20.930;2023-03-16T15:28:51;12.27;;;3.70;;
30723;SDS011;17473;52.286;20.930;2023-03-16T15:31:22;11.30;;;3.03;;
30723;SDS011;17473;52.286;20.930;2023-03-16T15:33:49;12.02;;;3.58;;
30723;SDS011;17473;52.286;20.930;2023-03-16T15:36:17;10.02;;;3.03;;
30723;SDS011;17473;52.286;20.930;2023-03-16T15:38:48;16.20;;;3.72;;
30723;SDS011;17473;52.286;20.930;2023-03-16T15:41:18;11.95;;;3.90;;
30723;SDS011;17473;52.286;20.930;2023-03-16T15:43:45;9.30;;;3.78;;
30723;SDS011;17473;52.286;20.930;2023-03-16T15:46:12;10.10;;;3.38;;
30723;SDS011;17473;52.286;20.930;2023-03-16T15:48:40;10.35;;;3.33;;
30723;SDS011;17473;52.286;20.930;2023-03-16T15:51:19;9.63;;;3.45;;
30723;SDS011;17473;52.286;20.930;2023-03-16T15:53:53;10.93;;;4.57;;
30723;SDS011;17473;52.286;20.930;2023-03-16T15:56:27;14.13;;;5.10;;
30723;SDS011;17473;52.286;20.930;2023-03-16T15:59:10;9.73;;;4.30;;
30723;SDS011;17473;52.286;20.930;2023-03-16T16:01:43;11.15;;;4.40;;
30723;SDS011;17473;52.286;20.930;2023-03-16T16:04:13;12.80;;;4.50;;
30723;SDS011;17473;52.286;20.930;2023-03-16T16:06:45;10.73;;;4.50;;